createdAt,value
2022-08-07T00:00:28.215Z,1.30
2022-08-07T00:02:57.261Z,0.80
2022-08-07T00:05:26.805Z,0.90
2022-08-07T00:08:00.116Z,0.83
2022-08-07T00:10:31.567Z,1.03
2022-08-07T00:13:17.524Z,0.90
2022-08-07T00:15:54.907Z,0.90
2022-08-07T00:18:25.874Z,1.03
2022-08-07T00:20:56.651Z,0.80
2022-08-07T00:23:28.408Z,0.97
2022-08-07T00:26:02.812Z,1.10
2022-08-07T00:28:45.983Z,0.90
2022-08-07T00:31:37.116Z,0.73
2022-08-07T00:34:08.768Z,1.17
2022-08-07T00:36:42.808Z,1.00
2022-08-07T00:39:12.780Z,1.30
2022-08-07T00:41:53.426Z,1.00
2022-08-07T00:44:24.448Z,0.90
2022-08-07T00:46:56.068Z,1.30
2022-08-07T00:50:20.775Z,1.30
2022-08-07T00:52:14.279Z,1.20
2022-08-07T00:54:53.833Z,1.30
2022-08-07T00:57:25.296Z,1.10
2022-08-07T00:59:56.625Z,1.50
2022-08-07T01:02:28.458Z,1.70
2022-08-07T01:04:59.406Z,1.47
2022-08-07T01:07:30.981Z,1.30
2022-08-07T01:10:07.038Z,1.43
2022-08-07T01:12:53.285Z,1.30
2022-08-07T01:15:36.120Z,1.60
2022-08-07T01:18:17.659Z,1.33
2022-08-07T01:20:59.322Z,1.33
2022-08-07T01:23:38.751Z,1.20
2022-08-07T01:26:12.010Z,1.47
2022-08-07T01:28:46.367Z,1.27
2022-08-07T01:31:19.174Z,1.20
2022-08-07T01:33:55.732Z,1.13
2022-08-07T01:36:33.637Z,1.10
2022-08-07T01:39:10.059Z,1.17
2022-08-07T01:41:40.786Z,1.13
2022-08-07T01:44:28.678Z,1.33
2022-08-07T01:46:57.666Z,1.30
2022-08-07T01:49:31.995Z,1.10
2022-08-07T01:52:04.910Z,1.10
2022-08-07T01:54:38.687Z,1.20
2022-08-07T01:57:20.677Z,1.10
2022-08-07T01:59:57.425Z,1.20
2022-08-07T02:03:12.286Z,1.33
2022-08-07T02:05:47.520Z,1.50
2022-08-07T02:08:23.822Z,1.30
2022-08-07T02:10:58.146Z,0.90
2022-08-07T02:13:58.168Z,1.30
2022-08-07T02:16:28.407Z,1.50
2022-08-07T02:19:05.489Z,1.33
2022-08-07T02:21:56.435Z,1.33
2022-08-07T02:24:29.742Z,1.17
2022-08-07T02:27:02.593Z,1.10
2022-08-07T02:29:32.849Z,1.50
2022-08-07T02:32:06.641Z,1.10
2022-08-07T02:34:48.909Z,1.20
2022-08-07T02:37:21.687Z,1.00
2022-08-07T02:40:02.112Z,1.33
2022-08-07T02:42:42.765Z,1.30
2022-08-07T02:46:00.709Z,1.50
2022-08-07T02:48:05.409Z,1.50
2022-08-07T02:50:42.816Z,1.30
2022-08-07T02:53:16.271Z,1.20
2022-08-07T02:56:03.251Z,1.57
2022-08-07T02:58:39.826Z,1.40
2022-08-07T03:01:19.222Z,1.40
2022-08-07T03:04:07.190Z,1.20
2022-08-07T03:06:42.014Z,1.57
2022-08-07T03:09:13.994Z,1.30
2022-08-07T03:11:51.857Z,1.30
2022-08-07T03:14:24.346Z,1.30
2022-08-07T03:16:53.789Z,1.30
2022-08-07T03:19:22.782Z,1.37
2022-08-07T03:21:52.499Z,1.50
2022-08-07T03:24:26.974Z,1.53
2022-08-07T03:26:59.627Z,1.17
2022-08-07T03:29:36.620Z,1.33
2022-08-07T03:32:13.471Z,1.20
2022-08-07T03:34:47.357Z,1.30
2022-08-07T03:37:32.614Z,1.60
2022-08-07T03:40:14.972Z,1.50
2022-08-07T03:42:45.459Z,1.50
2022-08-07T03:45:29.457Z,1.30
2022-08-07T03:48:00.253Z,1.40
2022-08-07T03:50:29.674Z,1.40
2022-08-07T03:52:59.741Z,1.43
2022-08-07T03:55:52.852Z,1.30
2022-08-07T03:59:07.272Z,1.33
2022-08-07T04:01:11.641Z,1.67
2022-08-07T04:03:53.549Z,1.47
2022-08-07T04:06:37.761Z,1.50
2022-08-07T04:09:08.369Z,1.73
2022-08-07T04:12:27.370Z,1.70
2022-08-07T04:14:38.892Z,1.80
2022-08-07T04:17:20.121Z,1.47
2022-08-07T04:19:52.424Z,1.67
2022-08-07T04:22:27.550Z,1.60
2022-08-07T04:25:01.632Z,1.73
2022-08-07T04:27:35.892Z,1.70
2022-08-07T04:30:21.328Z,1.70
2022-08-07T04:33:00.730Z,1.60
2022-08-07T04:35:35.210Z,1.73
2022-08-07T04:38:09.056Z,1.80
2022-08-07T04:40:51.322Z,2.10
2022-08-07T04:44:14.659Z,1.63
2022-08-07T04:46:26.006Z,1.67
2022-08-07T04:49:17.884Z,1.70
2022-08-07T04:52:01.338Z,1.90
2022-08-07T04:54:35.599Z,2.00
2022-08-07T04:58:14.421Z,1.77
2022-08-07T05:00:12.243Z,2.10
2022-08-07T05:02:54.944Z,2.10
2022-08-07T05:05:53.175Z,2.20
2022-08-07T05:08:58.965Z,2.40
2022-08-07T05:11:24.525Z,2.10
2022-08-07T05:14:53.679Z,2.20
2022-08-07T05:16:56.952Z,2.90
2022-08-07T05:19:44.864Z,2.37
2022-08-07T05:22:19.049Z,2.40
2022-08-07T05:24:59.568Z,2.40
2022-08-07T05:28:02.642Z,2.60
2022-08-07T05:30:32.731Z,2.27
2022-08-07T05:33:07.046Z,2.20
2022-08-07T05:35:42.173Z,2.47
2022-08-07T05:39:00.729Z,2.10
2022-08-07T05:41:12.408Z,2.37
2022-08-07T05:44:08.000Z,2.50
2022-08-07T05:46:39.759Z,2.30
2022-08-07T05:49:12.985Z,2.53
2022-08-07T05:51:46.639Z,2.60
2022-08-07T05:54:44.076Z,2.97
2022-08-07T05:57:16.773Z,2.67
2022-08-07T05:59:57.956Z,2.77
2022-08-07T06:02:35.468Z,2.90
2022-08-07T06:05:15.698Z,2.50
2022-08-07T06:08:29.803Z,2.80
2022-08-07T06:10:51.426Z,2.70
2022-08-07T06:14:12.257Z,2.80
2022-08-07T06:16:28.290Z,3.10
2022-08-07T06:19:03.181Z,3.27
2022-08-07T06:22:15.472Z,3.00
2022-08-07T06:24:52.772Z,3.00
2022-08-07T06:28:00.186Z,2.80
2022-08-07T06:30:24.165Z,2.70
2022-08-07T06:33:16.933Z,2.60
2022-08-07T06:36:06.808Z,2.93
2022-08-07T06:38:38.969Z,2.60
2022-08-07T06:42:02.477Z,2.97
2022-08-07T06:44:17.701Z,2.93
2022-08-07T06:46:53.707Z,2.70
2022-08-07T06:49:51.807Z,3.07
2022-08-07T06:52:32.062Z,2.83
2022-08-07T06:55:33.881Z,2.53
2022-08-07T06:58:00.024Z,2.90
2022-08-07T07:00:36.980Z,2.70
2022-08-07T07:03:08.873Z,2.50
2022-08-07T07:06:05.515Z,2.50
2022-08-07T07:08:33.491Z,2.40
2022-08-07T07:11:02.800Z,2.50
2022-08-07T07:13:58.340Z,2.50
2022-08-07T07:16:49.857Z,2.70
2022-08-07T07:19:57.179Z,2.37
2022-08-07T07:22:36.590Z,2.63
2022-08-07T07:26:32.038Z,2.47
2022-08-07T07:28:02.957Z,2.60
2022-08-07T07:30:40.040Z,2.47
2022-08-07T07:33:15.140Z,2.50
2022-08-07T07:36:04.638Z,2.60
2022-08-07T07:38:35.981Z,2.53
2022-08-07T07:41:09.353Z,2.90
2022-08-07T07:43:47.863Z,2.40
2022-08-07T07:46:39.984Z,2.50
2022-08-07T07:50:35.521Z,2.47
2022-08-07T07:52:17.605Z,2.30
2022-08-07T07:54:51.057Z,2.67
2022-08-07T07:57:52.433Z,2.22
2022-08-07T08:00:15.047Z,2.50
2022-08-07T08:03:05.540Z,2.97
2022-08-07T08:05:51.017Z,2.70
2022-08-07T08:08:36.961Z,2.60
2022-08-07T08:11:16.082Z,2.30
2022-08-07T08:13:54.754Z,2.50
2022-08-07T08:16:29.907Z,2.40
2022-08-07T08:20:18.993Z,2.33
2022-08-07T08:22:45.370Z,2.90
2022-08-07T08:27:20.393Z,2.47
2022-08-07T08:28:44.955Z,2.20
2022-08-07T08:31:30.252Z,2.20
2022-08-07T08:34:24.891Z,2.20
2022-08-07T08:36:58.524Z,2.30
2022-08-07T08:39:38.965Z,1.90
2022-08-07T08:42:28.216Z,2.20
2022-08-07T08:45:04.294Z,2.40
2022-08-07T08:47:52.165Z,2.10
2022-08-07T08:50:35.345Z,2.30
2022-08-07T08:53:15.203Z,2.00
2022-08-07T08:55:55.362Z,2.05
2022-08-07T08:58:36.191Z,3.30
2022-08-07T09:01:16.178Z,3.30
2022-08-07T09:03:56.816Z,2.70
2022-08-07T09:06:42.692Z,3.28
2022-08-07T09:09:33.386Z,3.22
2022-08-07T09:12:30.343Z,2.90
2022-08-07T09:16:21.957Z,3.28
2022-08-07T09:18:23.613Z,3.30
2022-08-07T09:21:02.911Z,3.13
2022-08-07T09:24:34.203Z,3.03
2022-08-07T09:26:40.700Z,3.30
2022-08-07T09:30:04.373Z,3.20
2022-08-07T09:32:27.615Z,3.33
2022-08-07T09:36:05.062Z,3.20
2022-08-07T09:38:10.923Z,3.28
2022-08-07T09:40:52.619Z,2.80
2022-08-07T09:44:03.105Z,2.75
2022-08-07T09:47:49.519Z,2.83
2022-08-07T09:50:00.450Z,2.58
2022-08-07T09:52:38.280Z,2.10
2022-08-07T09:55:28.743Z,1.83
2022-08-07T09:58:42.142Z,2.40
2022-08-07T10:01:52.239Z,2.70
2022-08-07T10:04:38.244Z,2.90
2022-08-07T10:07:40.005Z,3.33
2022-08-07T10:10:28.321Z,2.93
2022-08-07T10:13:55.210Z,2.57
2022-08-07T10:16:35.141Z,3.47
2022-08-07T10:19:48.481Z,3.17
2022-08-07T10:22:51.040Z,3.13
2022-08-07T10:25:32.890Z,3.78
2022-08-07T10:28:29.028Z,3.30
2022-08-07T10:31:11.193Z,3.27
2022-08-07T10:34:15.452Z,3.08
2022-08-07T10:37:26.539Z,3.70
2022-08-07T10:40:16.530Z,3.60
2022-08-07T10:43:01.944Z,3.70
2022-08-07T10:45:37.973Z,3.67
2022-08-07T10:48:39.402Z,3.35
2022-08-07T10:51:57.206Z,3.50
2022-08-07T10:54:20.908Z,3.33
2022-08-07T10:57:03.347Z,2.97
2022-08-07T10:59:47.425Z,3.17
2022-08-07T11:02:33.544Z,2.90
2022-08-07T11:05:16.000Z,2.60
2022-08-07T11:08:04.630Z,2.77
2022-08-07T11:10:41.911Z,2.70
2022-08-07T11:14:44.577Z,2.72
2022-08-07T11:16:10.242Z,2.47
2022-08-07T11:18:43.956Z,2.50
2022-08-07T11:21:28.196Z,2.45
2022-08-07T11:24:08.378Z,2.60
2022-08-07T11:26:50.081Z,1.90
2022-08-07T11:29:40.970Z,1.80
2022-08-07T11:32:26.139Z,2.30
2022-08-07T11:34:58.259Z,2.30
2022-08-07T11:37:58.196Z,1.70
2022-08-07T11:40:42.207Z,1.40
2022-08-07T11:43:29.711Z,1.73
2022-08-07T11:46:20.836Z,1.40
2022-08-07T11:49:51.043Z,1.30
2022-08-07T11:52:28.959Z,2.00
2022-08-07T11:55:18.724Z,1.90
2022-08-07T11:58:17.242Z,1.42
2022-08-07T12:01:05.167Z,2.05
2022-08-07T12:04:11.089Z,2.13
2022-08-07T12:07:01.098Z,2.03
2022-08-07T12:09:43.792Z,2.85
2022-08-07T12:12:20.330Z,2.20
2022-08-07T12:14:56.466Z,2.05
2022-08-07T12:17:58.892Z,2.00
2022-08-07T12:20:34.684Z,2.17
2022-08-07T12:24:04.798Z,2.03
2022-08-07T12:26:29.890Z,1.95
2022-08-07T12:29:09.100Z,1.98
2022-08-07T12:31:53.291Z,1.70
2022-08-07T12:34:38.249Z,1.80
2022-08-07T12:37:16.866Z,1.80
2022-08-07T12:39:59.980Z,1.52
2022-08-07T12:42:32.316Z,2.05
2022-08-07T12:45:08.395Z,1.83
2022-08-07T12:47:45.264Z,2.03
2022-08-07T12:50:39.674Z,1.90
2022-08-07T12:54:02.636Z,2.00
2022-08-07T12:56:28.913Z,2.22
2022-08-07T12:58:59.543Z,1.92
2022-08-07T13:01:38.529Z,1.90
2022-08-07T13:04:49.120Z,1.92
2022-08-07T13:08:11.929Z,1.80
2022-08-07T13:10:52.693Z,1.60
2022-08-07T13:13:47.165Z,1.70
2022-08-07T13:18:58.121Z,2.00
2022-08-07T13:21:37.599Z,1.60
2022-08-07T13:24:29.338Z,1.50
2022-08-07T13:27:08.465Z,1.60
2022-08-07T13:29:47.842Z,1.75
2022-08-07T13:32:31.180Z,1.50
2022-08-07T13:35:08.734Z,1.38
2022-08-07T13:37:58.650Z,1.30
2022-08-07T13:40:42.791Z,2.03
2022-08-07T13:43:17.111Z,1.73
2022-08-07T13:46:11.415Z,1.80
2022-08-07T13:48:51.934Z,2.10
2022-08-07T13:52:05.089Z,2.00
2022-08-07T13:54:33.516Z,2.00
2022-08-07T13:57:14.467Z,2.15
2022-08-07T13:59:57.975Z,1.80
2022-08-07T14:02:49.394Z,2.03
2022-08-07T14:05:25.298Z,1.80
2022-08-07T14:08:10.661Z,1.88
2022-08-07T14:10:46.351Z,1.98
2022-08-07T14:13:38.789Z,1.80
2022-08-07T14:16:27.106Z,1.85
2022-08-07T14:19:10.058Z,2.00
2022-08-07T14:22:04.009Z,2.05
2022-08-07T14:24:50.768Z,2.25
2022-08-07T14:28:12.263Z,2.15
2022-08-07T14:30:32.681Z,1.90
2022-08-07T14:33:08.614Z,1.90
2022-08-07T14:35:47.526Z,1.70
2022-08-07T14:38:26.231Z,1.75
2022-08-07T14:41:04.479Z,1.77
2022-08-07T14:43:58.865Z,1.83
2022-08-07T14:46:36.342Z,2.40
2022-08-07T14:49:57.450Z,1.73
2022-08-07T14:52:25.805Z,2.08
2022-08-07T14:54:58.492Z,1.70
2022-08-07T14:57:55.172Z,2.00
2022-08-07T15:00:30.355Z,2.38
2022-08-07T15:03:18.620Z,2.00
2022-08-07T15:05:54.885Z,1.80
2022-08-07T15:08:49.900Z,1.75
2022-08-07T15:11:53.637Z,2.22
2022-08-07T15:14:23.438Z,2.25
2022-08-07T15:17:02.055Z,1.90
2022-08-07T15:20:30.905Z,2.10
2022-08-07T15:22:33.483Z,2.10
2022-08-07T15:28:34.715Z,2.25
2022-08-07T15:31:05.413Z,2.30
2022-08-07T15:33:36.424Z,1.92
2022-08-07T15:36:08.600Z,2.55
2022-08-07T15:38:51.919Z,2.08
2022-08-07T15:42:46.952Z,2.15
2022-08-07T15:44:23.784Z,2.30
2022-08-07T15:50:05.326Z,2.50
2022-08-07T15:52:44.236Z,2.90
2022-08-07T15:55:23.258Z,2.40
2022-08-07T15:58:20.728Z,2.10
2022-08-07T16:00:51.774Z,2.15
2022-08-07T16:03:46.334Z,2.35
2022-08-07T16:06:21.902Z,2.10
2022-08-07T16:08:55.643Z,3.00
2022-08-07T16:11:54.855Z,2.50
2022-08-07T16:14:41.435Z,1.98
2022-08-07T16:18:02.471Z,1.90
2022-08-07T16:20:41.640Z,1.95
2022-08-07T16:23:53.969Z,2.15
2022-08-07T16:26:59.486Z,2.30
2022-08-07T16:30:10.125Z,2.00
2022-08-07T16:32:54.005Z,1.90
2022-08-07T16:35:52.122Z,2.20
2022-08-07T16:39:01.059Z,1.88
2022-08-07T16:42:03.867Z,2.15
2022-08-07T16:45:19.135Z,2.17
2022-08-07T16:49:10.568Z,2.10
2022-08-07T16:51:52.042Z,1.90
2022-08-07T16:54:39.133Z,2.33
2022-08-07T16:58:02.281Z,2.40
2022-08-07T17:00:35.767Z,2.05
2022-08-07T17:03:18.781Z,2.00
2022-08-07T17:06:29.131Z,2.08
2022-08-07T17:09:09.204Z,2.05
2022-08-07T17:12:04.552Z,2.08
2022-08-07T17:14:51.498Z,2.00
2022-08-07T17:17:44.201Z,1.92
2022-08-07T17:20:30.047Z,2.10
2022-08-07T17:23:08.779Z,2.05
2022-08-07T17:25:55.353Z,2.20
2022-08-07T17:28:31.450Z,2.40
2022-08-07T17:31:15.952Z,2.47
2022-08-07T17:34:15.400Z,3.65
2022-08-07T17:36:58.136Z,2.20
2022-08-07T17:39:57.809Z,2.67
2022-08-07T17:42:59.472Z,2.08
2022-08-07T17:45:35.096Z,2.55
2022-08-07T17:48:13.317Z,2.40
2022-08-07T17:50:54.604Z,2.28
2022-08-07T17:54:01.120Z,2.13
2022-08-07T17:56:29.003Z,2.45
2022-08-07T17:59:04.838Z,2.33
2022-08-07T18:01:40.938Z,2.40
2022-08-07T18:04:31.137Z,2.22
2022-08-07T18:07:20.924Z,3.22
2022-08-07T18:10:06.453Z,2.40
2022-08-07T18:12:52.355Z,2.30
2022-08-07T18:15:33.123Z,2.60
2022-08-07T18:19:02.542Z,2.50
2022-08-07T18:21:40.156Z,2.38
2022-08-07T18:24:02.132Z,2.08
2022-08-07T18:27:01.205Z,2.25
2022-08-07T18:30:07.716Z,2.38
2022-08-07T18:33:11.013Z,2.47
2022-08-07T18:36:01.645Z,2.03
2022-08-07T18:38:55.358Z,2.30
2022-08-07T18:41:46.283Z,2.40
2022-08-07T18:45:09.266Z,2.15
2022-08-07T18:47:41.847Z,2.50
2022-08-07T18:50:45.374Z,2.10
2022-08-07T18:53:36.928Z,2.17
2022-08-07T18:56:18.184Z,1.85
2022-08-07T18:58:58.378Z,1.63
2022-08-07T19:02:32.334Z,2.00
2022-08-07T19:04:57.581Z,1.55
2022-08-07T19:07:37.932Z,2.10
2022-08-07T19:10:31.415Z,1.85
2022-08-07T19:13:11.661Z,1.92
2022-08-07T19:16:04.980Z,2.10
2022-08-07T19:18:56.464Z,1.83
2022-08-07T19:21:58.315Z,2.10
2022-08-07T19:24:43.297Z,2.00
2022-08-07T19:30:55.675Z,2.17
2022-08-07T19:31:00.138Z,2.38
2022-08-07T19:33:13.413Z,1.52
2022-08-07T19:35:49.893Z,2.25
2022-08-07T19:38:21.539Z,2.03
2022-08-07T19:40:53.358Z,1.83
2022-08-07T19:43:43.962Z,2.17
2022-08-07T19:46:19.358Z,2.08
2022-08-07T19:48:57.625Z,2.15
2022-08-07T19:51:53.053Z,2.08
2022-08-07T19:54:35.554Z,2.20
2022-08-07T19:58:01.298Z,2.00
2022-08-07T20:00:03.375Z,2.10
2022-08-07T20:02:52.531Z,2.50
2022-08-07T20:05:27.995Z,2.03
2022-08-07T20:08:01.843Z,2.10
2022-08-07T20:10:52.110Z,2.30
2022-08-07T20:13:32.739Z,2.00
2022-08-07T20:16:07.750Z,2.25
2022-08-07T20:18:48.659Z,2.00
2022-08-07T20:21:22.555Z,2.20
2022-08-07T20:23:57.897Z,2.30
2022-08-07T20:26:44.883Z,2.50
2022-08-07T20:29:49.401Z,2.50
2022-08-07T20:32:23.113Z,2.03
2022-08-07T20:34:59.837Z,2.10
2022-08-07T20:37:37.130Z,2.10
2022-08-07T20:40:32.888Z,2.03
2022-08-07T20:43:14.416Z,2.20
2022-08-07T20:46:27.303Z,1.93
2022-08-07T20:48:58.087Z,1.90
2022-08-07T20:51:36.006Z,2.20
2022-08-07T20:54:12.390Z,2.87
2022-08-07T20:56:50.758Z,1.73
2022-08-07T21:00:05.395Z,2.10
2022-08-07T21:02:32.121Z,2.20
2022-08-07T21:05:10.057Z,2.23
2022-08-07T21:07:42.116Z,2.33
2022-08-07T21:10:25.222Z,2.87
2022-08-07T21:13:08.057Z,1.92
2022-08-07T21:15:47.737Z,1.97
2022-08-07T21:18:33.625Z,2.10
2022-08-07T21:21:05.253Z,1.67
2022-08-07T21:23:50.816Z,1.40
2022-08-07T21:26:35.574Z,1.60
2022-08-07T21:29:15.766Z,1.60
2022-08-07T21:32:47.679Z,1.85
2022-08-07T21:34:48.983Z,1.77
2022-08-07T21:37:25.644Z,1.40
2022-08-07T21:40:01.345Z,1.47
2022-08-07T21:42:46.613Z,1.60
2022-08-07T21:46:09.032Z,1.30
2022-08-07T21:48:28.214Z,2.00
2022-08-07T21:51:19.770Z,1.40
2022-08-07T21:53:55.082Z,1.60
2022-08-07T21:56:48.216Z,1.60
2022-08-07T22:00:02.816Z,1.50
2022-08-07T22:02:29.791Z,1.40
2022-08-07T22:05:02.901Z,1.50
2022-08-07T22:07:58.908Z,1.60
2022-08-07T22:10:29.270Z,1.40
2022-08-07T22:13:09.409Z,1.17
2022-08-07T22:16:44.188Z,1.37
2022-08-07T22:18:39.421Z,1.53
2022-08-07T22:21:16.023Z,1.13
2022-08-07T22:23:53.471Z,1.40
2022-08-07T22:26:28.121Z,1.30
2022-08-07T22:29:05.400Z,1.37
2022-08-07T22:32:00.042Z,1.40
2022-08-07T22:34:41.772Z,1.23
2022-08-07T22:38:03.785Z,1.70
2022-08-07T22:40:30.042Z,1.30
2022-08-07T22:43:04.745Z,1.30
2022-08-07T22:46:40.701Z,1.37
2022-08-07T22:49:06.535Z,1.13
2022-08-07T22:52:00.587Z,1.40
2022-08-07T22:54:48.852Z,1.10
2022-08-07T22:57:47.069Z,1.40
2022-08-07T23:00:28.627Z,1.33
2022-08-07T23:03:12.440Z,1.00
2022-08-07T23:06:09.606Z,1.20
2022-08-07T23:10:05.913Z,1.10
2022-08-07T23:12:20.968Z,1.40
2022-08-07T23:15:10.445Z,1.40
2022-08-07T23:17:58.255Z,1.10
2022-08-07T23:20:52.631Z,1.80
2022-08-07T23:24:06.858Z,1.57
2022-08-07T23:26:50.517Z,1.60
2022-08-07T23:30:38.189Z,1.47
2022-08-07T23:34:35.095Z,1.87
2022-08-07T23:35:56.906Z,1.80
2022-08-07T23:38:45.112Z,1.73
2022-08-07T23:41:33.255Z,1.73
2022-08-07T23:44:29.484Z,1.80
2022-08-07T23:47:42.182Z,1.70
2022-08-07T23:50:42.536Z,1.60
2022-08-07T23:53:51.012Z,1.83
2022-08-07T23:56:23.541Z,1.60
2022-08-07T23:59:10.628Z,1.53
